Time;durP1;ratioP1;P1;durP2;ratioP2;P2;SDS_P1;SDS_P2;PMS_P1;PMS_P2;Temp;Humidity;BMP_temperature;BMP_pressure;BME280_temperature;BME280_humidity;BME280_pressure;Samples;Min_cycle;Max_cycle;Signal;HPM_P1;HPM_P2
2021/12/22 00:00:16;;;;;;;2.00;1.90;;;-4.10;99.90;;;;;;5115844;28;20348;-84
2021/12/22 00:02:46;;;;;;;1.17;1.00;;;-4.10;99.90;;;;;;5081708;28;20430;-83
2021/12/22 00:05:23;;;;;;;1.10;1.00;;;-4.10;99.90;;;;;;5115624;28;20046;-85
2021/12/22 00:07:48;;;;;;;1.10;1.00;;;-4.10;99.90;;;;;;5115786;28;20382;-85
2021/12/22 00:10:14;;;;;;;1.10;1.00;;;-4.10;99.90;;;;;;5149762;27;20032;-84
2021/12/22 00:12:40;;;;;;;4.63;4.23;;;-4.10;99.90;;;;;;5149958;27;20031;-85
2021/12/22 00:15:06;;;;;;;1.20;1.10;;;-4.10;99.90;;;;;;5149454;27;20031;-84
2021/12/22 00:17:32;;;;;;;1.10;1.00;;;-4.10;99.90;;;;;;5115485;28;20368;-84
2021/12/22 00:19:58;;;;;;;2.67;2.50;;;-4.10;99.90;;;;;;5149813;27;20110;-84
2021/12/22 00:22:24;;;;;;;1.03;0.93;;;-4.20;99.90;;;;;;5116625;28;20043;-83
2021/12/22 00:24:49;;;;;;;1.10;1.00;;;-4.10;99.90;;;;;;5116518;28;20110;-84
2021/12/22 00:27:15;;;;;;;1.93;1.83;;;-3.90;99.90;;;;;;5116181;28;20089;-84
2021/12/22 00:29:44;;;;;;;3.43;3.17;;;-4.10;99.90;;;;;;5116035;28;20039;-84
2021/12/22 00:32:13;;;;;;;1.20;1.10;;;-4.30;99.90;;;;;;5114912;28;20040;-84
2021/12/22 00:34:49;;;;;;;1.20;1.10;;;-4.20;99.90;;;;;;5149559;27;20044;-84
2021/12/22 00:37:17;;;;;;;1.75;1.65;;;-4.20;99.90;;;;;;5114464;28;20540;-85
2021/12/22 00:39:44;;;;;;;1.48;1.38;;;-4.40;99.90;;;;;;5097754;28;20039;-84
2021/12/22 00:42:11;;;;;;;1.10;1.00;;;-4.30;99.90;;;;;;5116173;28;20062;-84
2021/12/22 00:44:38;;;;;;;0.93;0.93;;;-4.20;99.90;;;;;;5097689;28;20035;-83
2021/12/22 00:47:03;;;;;;;1.10;1.00;;;-4.20;99.90;;;;;;5114779;28;20491;-83
2021/12/22 00:49:29;;;;;;;0.90;0.90;;;-4.20;99.90;;;;;;5097821;28;20038;-84
2021/12/22 00:51:55;;;;;;;3.72;3.42;;;-4.30;99.90;;;;;;5114018;28;20055;-83
2021/12/22 00:54:21;;;;;;;1.10;1.00;;;-4.30;99.90;;;;;;5116036;28;20549;-84
2021/12/22 00:56:47;;;;;;;1.47;1.10;;;-4.30;99.90;;;;;;5148947;27;20380;-84
2021/12/22 00:59:12;;;;;;;1.63;1.53;;;-4.40;99.90;;;;;;5115584;28;20031;-84
2021/12/22 01:01:38;;;;;;;1.10;1.00;;;-4.40;99.90;;;;;;5115889;28;20043;-83
2021/12/22 01:04:04;;;;;;;1.20;1.10;;;-4.40;99.90;;;;;;5115797;28;20043;-84
2021/12/22 01:06:29;;;;;;;0.90;0.90;;;-4.40;99.90;;;;;;5115736;28;20495;-84
2021/12/22 01:08:55;;;;;;;1.10;1.00;;;-4.50;99.90;;;;;;5115776;28;20375;-83
2021/12/22 01:11:21;;;;;;;1.20;1.10;;;-4.40;99.90;;;;;;5115746;28;20081;-84
2021/12/22 01:13:47;;;;;;;1.13;1.03;;;-4.40;99.90;;;;;;5115839;27;20040;-83
2021/12/22 01:16:12;;;;;;;1.10;1.00;;;-4.40;99.90;;;;;;5114508;28;20101;-83
2021/12/22 01:18:39;;;;;;;1.10;1.00;;;-4.40;99.90;;;;;;5116630;28;20356;-83
2021/12/22 01:21:15;;;;;;;1.10;1.00;;;-4.40;99.90;;;;;;5115212;28;20074;-83
2021/12/22 01:23:59;;;;;;;1.10;1.00;;;-4.50;99.90;;;;;;5114233;28;20040;-83
2021/12/22 01:26:27;;;;;;;1.08;1.00;;;-2.90;99.90;;;;;;5133977;27;20104;-83
2021/12/22 01:28:53;;;;;;;5.85;5.45;;;-4.70;99.90;;;;;;5114286;28;20040;-84
2021/12/22 01:31:18;;;;;;;1.20;1.10;;;-4.50;99.90;;;;;;5115305;28;20562;-84
2021/12/22 01:33:44;;;;;;;1.00;0.97;;;-4.50;99.90;;;;;;5113792;28;20487;-84
2021/12/22 01:36:10;;;;;;;1.10;1.00;;;-4.50;99.90;;;;;;5147972;27;20039;-84
2021/12/22 01:38:36;;;;;;;3.53;3.33;;;-3.90;99.90;;;;;;5113761;28;20079;-84
2021/12/22 01:41:01;;;;;;;1.10;1.00;;;-4.60;99.90;;;;;;5096462;28;20038;-84
2021/12/22 01:43:27;;;;;;;1.03;0.93;;;-4.60;99.90;;;;;;5113637;28;20118;-84
2021/12/22 01:49:10;;;;;;;1.10;1.00;;;-4.70;99.90;;;;;;5114916;28;20122;-84
2021/12/22 01:51:45;;;;;;;1.52;1.42;;;-4.60;99.90;;;;;;5114010;28;20056;-83
2021/12/22 01:54:19;;;;;;;1.10;1.00;;;-4.70;99.90;;;;;;5113826;28;20043;-84
2021/12/22 01:56:50;;;;;;;1.10;1.00;;;-4.60;99.90;;;;;;5096408;28;20067;-84
2021/12/22 01:59:15;;;;;;;4.50;3.35;;;-4.60;99.90;;;;;;5095881;28;20520;-84
2021/12/22 02:01:41;;;;;;;1.10;1.00;;;-4.70;99.90;;;;;;5113664;28;20035;-84
2021/12/22 02:04:10;;;;;;;1.10;1.00;;;-4.70;99.90;;;;;;5112361;28;20035;-84
2021/12/22 02:06:47;;;;;;;1.10;1.00;;;-4.70;99.90;;;;;;5112622;28;20096;-84
2021/12/22 02:09:23;;;;;;;1.10;1.00;;;-4.70;99.90;;;;;;5113873;28;20051;-83
2021/12/22 02:11:49;;;;;;;1.27;1.17;;;-4.70;99.90;;;;;;5113848;28;20556;-84
2021/12/22 02:14:15;;;;;;;1.20;1.10;;;-4.50;99.90;;;;;;5112210;28;20039;-83
2021/12/22 02:16:41;;;;;;;1.10;1.00;;;-4.70;99.90;;;;;;5113542;28;20040;-84
2021/12/22 02:19:08;;;;;;;1.23;1.13;;;-4.70;99.90;;;;;;5112185;28;20032;-84
2021/12/22 02:21:41;;;;;;;1.35;1.25;;;-4.70;99.90;;;;;;5113608;28;20032;-84
2021/12/22 02:24:07;;;;;;;1.38;1.08;;;-4.80;99.90;;;;;;5095177;28;20544;-84
2021/12/22 02:26:48;;;;;;;0.90;0.90;;;-4.80;99.90;;;;;;5113447;28;20074;-84
2021/12/22 02:29:23;;;;;;;1.10;1.00;;;-4.80;99.90;;;;;;5095379;28;20055;-83
2021/12/22 02:32:10;;;;;;;2.13;2.03;;;-4.80;99.90;;;;;;5113643;28;20043;-83
2021/12/22 02:34:42;;;;;;;1.20;1.10;;;-4.80;99.90;;;;;;5112446;28;20120;-84
2021/12/22 02:37:15;;;;;;;1.20;1.10;;;-4.80;99.90;;;;;;5111882;28;20043;-84
2021/12/22 02:39:46;;;;;;;1.15;1.05;;;-4.80;99.90;;;;;;5112369;28;20038;-84
2021/12/22 02:42:12;;;;;;;1.10;1.00;;;-5.00;99.90;;;;;;5094811;28;20115;-84
2021/12/22 02:44:38;;;;;;;;;;;-4.80;99.90;;;;;;5095438;28;20089;-84
2021/12/22 02:47:18;;;;;;;1.10;1.00;;;-4.90;99.90;;;;;;5111833;28;20002;-84
2021/12/22 02:49:44;;;;;;;2.30;2.10;;;-4.90;99.90;;;;;;5111698;28;20055;-84
2021/12/22 02:52:10;;;;;;;1.20;1.10;;;-4.90;99.90;;;;;;5077289;28;1032076;-84
2021/12/22 02:54:42;;;;;;;1.17;1.07;;;-4.90;99.90;;;;;;5116477;28;20043;-84
2021/12/22 02:57:20;;;;;;;2.60;2.42;;;-4.90;99.90;;;;;;5116860;28;20096;-84
2021/12/22 03:02:40;;;;;;;1.20;1.10;;;-5.10;99.90;;;;;;5116819;28;20492;-84
2021/12/22 03:05:06;;;;;;;1.20;1.10;;;-4.90;99.90;;;;;;5118135;28;20426;-84
2021/12/22 03:07:32;;;;;;;1.20;1.10;;;-4.90;99.90;;;;;;5116597;28;20040;-84
2021/12/22 03:10:03;;;;;;;1.10;1.00;;;-5.00;99.90;;;;;;5117016;28;20382;-83
2021/12/22 03:12:33;;;;;;;1.10;1.00;;;-4.90;99.90;;;;;;5117780;28;20498;-84
2021/12/22 03:14:58;;;;;;;1.10;1.00;;;-4.90;99.90;;;;;;5116395;28;20488;-84
2021/12/22 03:17:24;;;;;;;1.10;1.00;;;-5.00;99.90;;;;;;5116645;28;20046;-84
2021/12/22 03:19:50;;;;;;;3.73;3.43;;;-5.00;99.90;;;;;;5133547;27;20065;-84
2021/12/22 03:22:19;;;;;;;1.13;1.03;;;-5.00;99.90;;;;;;5117561;28;20059;-84
2021/12/22 03:24:47;;;;;;;1.20;1.10;;;-5.00;99.90;;;;;;5116441;28;20035;-84
2021/12/22 03:27:12;;;;;;;1.30;1.20;;;-5.00;99.90;;;;;;5116289;28;20039;-85
2021/12/22 03:29:39;;;;;;;1.20;1.10;;;-4.70;99.90;;;;;;5116085;28;20050;-84
2021/12/22 03:32:07;;;;;;;1.70;1.20;;;-5.00;99.90;;;;;;5099506;28;20036;-84
2021/12/22 03:34:33;;;;;;;1.10;1.00;;;-5.00;99.90;;;;;;5116443;28;20067;-84
2021/12/22 03:36:59;;;;;;;1.10;1.00;;;-5.00;99.90;;;;;;5117380;28;20039;-84
2021/12/22 03:39:27;;;;;;;1.17;1.07;;;-5.00;99.90;;;;;;5116188;28;20038;-84
2021/12/22 03:41:52;;;;;;;1.20;1.10;;;-5.00;99.90;;;;;;5133845;27;20032;-84
2021/12/22 03:44:18;;;;;;;1.20;1.10;;;-5.20;99.90;;;;;;5116042;28;20403;-84
2021/12/22 03:46:44;;;;;;;1.20;1.10;;;-5.30;99.90;;;;;;5117272;28;20113;-84
2021/12/22 03:49:11;;;;;;;1.10;1.00;;;-5.50;99.90;;;;;;5150491;27;20043;-84
2021/12/22 03:51:37;;;;;;;1.10;1.00;;;-5.10;99.90;;;;;;5116132;28;20063;-84
2021/12/22 03:54:04;;;;;;;1.20;1.10;;;-5.00;99.90;;;;;;5116351;28;20051;-84
2021/12/22 03:56:30;;;;;;;;;;;-5.00;99.90;;;;;;5120652;28;20383;-84
2021/12/22 03:58:55;;;;;;;1.10;1.00;;;-5.10;99.90;;;;;;5118833;28;19916;-83
2021/12/22 04:01:21;;;;;;;1.57;1.47;;;-5.20;99.90;;;;;;5117283;28;20038;-84
2021/12/22 04:03:50;;;;;;;1.10;1.00;;;-5.10;99.90;;;;;;5117262;28;20242;-83
2021/12/22 04:06:16;;;;;;;1.30;1.20;;;-5.10;99.90;;;;;;5115454;28;20051;-84
2021/12/22 04:08:41;;;;;;;1.10;1.00;;;-5.10;99.90;;;;;;5132964;27;20035;-84
2021/12/22 04:11:07;;;;;;;1.20;1.10;;;-5.20;99.90;;;;;;5119650;28;20035;-84
2021/12/22 04:13:33;;;;;;;1.10;1.00;;;-5.20;99.90;;;;;;5153444;27;20044;-82
2021/12/22 04:15:59;;;;;;;1.10;1.00;;;;;;;;;;5162881;27;20051;-84
2021/12/22 04:18:24;;;;;;;1.73;1.63;;;-5.10;99.90;;;;;;5116312;28;20036;-83
2021/12/22 04:20:50;;;;;;;1.20;1.10;;;-5.10;99.90;;;;;;5116816;28;20070;-84
2021/12/22 04:23:16;;;;;;;1.10;1.00;;;-5.10;99.90;;;;;;5116694;28;20165;-84
2021/12/22 04:25:42;;;;;;;1.40;1.30;;;-5.10;99.90;;;;;;5116648;28;20115;-84
2021/12/22 04:28:10;;;;;;;1.20;1.10;;;-5.10;99.90;;;;;;5114996;28;20526;-84
2021/12/22 04:30:38;;;;;;;1.20;1.10;;;-5.10;99.90;;;;;;5115703;28;20078;-84
2021/12/22 04:33:04;;;;;;;3.47;3.17;;;-5.10;99.90;;;;;;5098327;28;20039;-84
2021/12/22 04:35:30;;;;;;;1.10;1.00;;;-5.20;99.90;;;;;;5149639;27;20096;-84
2021/12/22 04:37:56;;;;;;;1.10;1.00;;;-5.10;99.90;;;;;;5149465;27;20036;-84
2021/12/22 04:40:22;;;;;;;1.23;1.13;;;-5.10;99.90;;;;;;5149425;27;20119;-84
2021/12/22 04:42:47;;;;;;;1.20;1.10;;;-5.10;99.90;;;;;;5116181;28;20039;-84
2021/12/22 04:45:14;;;;;;;3.80;3.50;;;-5.30;99.90;;;;;;5114713;28;20562;-83
2021/12/22 04:47:40;;;;;;;2.95;2.75;;;-5.20;99.90;;;;;;5114979;27;20058;-84
2021/12/22 04:50:11;;;;;;;1.20;1.10;;;-5.10;99.90;;;;;;5114693;28;20035;-84
2021/12/22 04:52:45;;;;;;;1.10;1.00;;;-5.10;99.90;;;;;;5114680;28;20300;-83
2021/12/22 04:55:10;;;;;;;1.10;1.00;;;-5.20;99.90;;;;;;5115987;27;20043;-83
2021/12/22 04:57:36;;;;;;;1.10;1.00;;;-5.10;99.90;;;;;;5114709;28;20388;-86
2021/12/22 05:00:05;;;;;;;1.10;1.00;;;-5.10;99.90;;;;;;5097471;28;20381;-84
2021/12/22 05:02:31;;;;;;;1.20;1.10;;;-5.10;99.90;;;;;;5115416;28;20036;-84
2021/12/22 05:04:56;;;;;;;1.20;1.10;;;-5.10;99.90;;;;;;5131641;27;20032;-84
2021/12/22 05:07:22;;;;;;;1.20;1.10;;;-5.20;99.90;;;;;;5115804;28;20327;-84
2021/12/22 05:09:48;;;;;;;1.10;1.00;;;-5.10;99.90;;;;;;5115668;28;20035;-84
2021/12/22 05:12:13;;;;;;;1.20;1.10;;;-5.10;99.90;;;;;;5148502;27;20031;-84
2021/12/22 05:14:42;;;;;;;26.67;23.37;;;;;;;;;;5115328;28;20448;-84
2021/12/22 05:17:17;;;;;;;1.10;1.00;;;-5.10;99.90;;;;;;5113242;28;20074;-84
2021/12/22 05:19:42;;;;;;;1.10;1.00;;;-5.10;99.90;;;;;;5148878;27;20036;-84
2021/12/22 05:22:08;;;;;;;1.20;1.10;;;-5.10;99.90;;;;;;5115406;28;20114;-83
2021/12/22 05:24:33;;;;;;;1.53;1.43;;;-5.20;99.90;;;;;;5115195;28;20073;-84
2021/12/22 05:26:59;;;;;;;1.30;1.20;;;-5.20;99.90;;;;;;5148386;27;20042;-84
2021/12/22 05:29:24;;;;;;;1.20;1.10;;;-5.20;99.90;;;;;;5114061;28;20526;-84
2021/12/22 05:31:54;;;;;;;1.10;1.00;;;-5.20;99.90;;;;;;5148254;27;20036;-84
2021/12/22 05:34:19;;;;;;;1.20;1.10;;;-5.20;99.90;;;;;;5115267;28;20043;-84
2021/12/22 05:36:45;;;;;;;18.47;17.13;;;-5.20;99.90;;;;;;5148130;27;20377;-84
2021/12/22 05:39:10;;;;;;;1.30;1.20;;;-5.20;99.90;;;;;;5115220;28;20043;-84
2021/12/22 05:41:36;;;;;;;1.20;1.10;;;-5.20;99.90;;;;;;5148139;27;20031;-85
2021/12/22 05:44:02;;;;;;;1.23;1.13;;;-5.20;99.90;;;;;;5130805;27;20039;-84
2021/12/22 05:46:27;;;;;;;1.20;1.10;;;-5.10;99.90;;;;;;5130972;27;20043;-84
2021/12/22 05:48:53;;;;;;;1.30;1.20;;;-5.20;99.90;;;;;;5114719;28;20048;-84
2021/12/22 05:51:18;;;;;;;1.20;1.10;;;-4.90;99.90;;;;;;5113220;28;20052;-84
2021/12/22 05:53:44;;;;;;;1.20;1.10;;;-5.20;99.90;;;;;;5130439;27;20050;-84
2021/12/22 05:56:12;;;;;;;1.20;1.10;;;-5.20;99.90;;;;;;5113452;28;20471;-84
2021/12/22 05:58:38;;;;;;;1.20;1.10;;;-5.20;99.90;;;;;;5113633;28;20085;-84
2021/12/22 06:01:04;;;;;;;1.20;1.10;;;-5.20;99.90;;;;;;5114577;28;20036;-84
2021/12/22 06:03:29;;;;;;;1.47;1.37;;;-5.20;99.90;;;;;;5113211;28;20034;-84
2021/12/22 06:05:56;;;;;;;1.20;1.10;;;-5.20;99.90;;;;;;5113514;28;20085;-84
2021/12/22 06:08:21;;;;;;;3.85;3.65;;;;;;;;;;5113509;28;20039;-85
2021/12/22 06:10:47;;;;;;;1.30;1.20;;;-5.20;99.90;;;;;;5096110;28;20065;-84
2021/12/22 06:13:13;;;;;;;1.20;1.10;;;-5.30;99.90;;;;;;5114551;28;20421;-82
2021/12/22 06:15:40;;;;;;;1.33;1.23;;;-5.30;99.90;;;;;;5114472;28;20043;-83
2021/12/22 06:18:06;;;;;;;;;;;-5.20;99.90;;;;;;5114925;28;20106;-83
2021/12/22 06:20:32;;;;;;;1.10;1.00;;;-5.20;99.90;;;;;;5114481;28;20011;-76
2021/12/22 06:22:59;;;;;;;1.58;1.23;;;-5.20;99.90;;;;;;5112916;28;20391;-83
2021/12/22 06:25:25;;;;;;;1.20;1.10;;;-5.30;99.90;;;;;;5114472;28;20032;-82
2021/12/22 06:27:52;;;;;;;1.20;1.10;;;-5.20;99.90;;;;;;5114203;28;20031;-82
2021/12/22 06:30:20;;;;;;;3.75;3.55;;;-5.20;99.90;;;;;;5113171;28;20039;-79
2021/12/22 06:32:47;;;;;;;1.10;1.00;;;-5.10;99.90;;;;;;5114304;28;20085;-82
2021/12/22 06:35:12;;;;;;;1.20;1.10;;;-5.10;99.90;;;;;;5112713;28;20476;-84
2021/12/22 06:37:38;;;;;;;1.10;1.00;;;-5.20;99.90;;;;;;5114163;28;20046;-83
2021/12/22 06:40:07;;;;;;;1.20;1.10;;;-5.20;99.90;;;;;;5113108;28;20476;-82
2021/12/22 06:42:32;;;;;;;1.10;1.00;;;-5.20;99.90;;;;;;5113759;28;20471;-81
2021/12/22 06:44:58;;;;;;;2.60;2.40;;;-5.10;99.90;;;;;;5114238;28;20115;-80
2021/12/22 06:47:24;;;;;;;1.20;1.10;;;-5.20;99.90;;;;;;5114118;28;20035;-83
2021/12/22 06:49:50;;;;;;;1.38;1.27;;;-5.00;99.90;;;;;;5114166;28;20050;-82
2021/12/22 06:52:16;;;;;;;1.10;1.00;;;-5.10;99.90;;;;;;5111369;28;20051;-82
2021/12/22 06:54:42;;;;;;;1.20;1.10;;;-5.20;99.90;;;;;;5145430;27;20048;-80
2021/12/22 06:57:07;;;;;;;1.10;1.00;;;-5.20;99.90;;;;;;5114041;28;20444;-81
2021/12/22 06:59:33;;;;;;;1.67;1.10;;;-5.10;99.90;;;;;;5113979;28;20040;-80
2021/12/22 07:01:59;;;;;;;1.13;1.03;;;-5.10;99.90;;;;;;5114088;28;20384;-82
2021/12/22 07:04:24;;;;;;;1.20;1.10;;;-5.10;99.90;;;;;;5114012;28;20035;-82
2021/12/22 07:06:50;;;;;;;1.20;1.10;;;-5.10;99.90;;;;;;5113949;28;20039;-81
2021/12/22 07:09:16;;;;;;;1.20;1.10;;;-5.10;99.90;;;;;;5113014;28;20039;-80
2021/12/22 07:11:43;;;;;;;1.20;1.10;;;-5.10;99.90;;;;;;5115119;28;20046;-81
2021/12/22 07:14:09;;;;;;;1.10;1.00;;;-5.10;99.90;;;;;;5115619;28;20070;-80
2021/12/22 07:16:35;;;;;;;1.20;1.10;;;-5.10;99.90;;;;;;5095551;28;20399;-81
2021/12/22 07:19:01;;;;;;;2.60;1.63;;;-5.10;99.90;;;;;;5113857;28;20039;-79
2021/12/22 07:21:27;;;;;;;1.30;1.20;;;-5.10;99.90;;;;;;5113774;28;20039;-82
2021/12/22 07:23:52;;;;;;;1.20;1.10;;;-5.10;99.90;;;;;;5113741;28;20036;-81
2021/12/22 07:26:18;;;;;;;1.20;1.10;;;-5.10;99.90;;;;;;5113840;28;20122;-81
2021/12/22 07:28:46;;;;;;;1.27;1.17;;;-5.10;99.90;;;;;;5112303;28;20043;-83
2021/12/22 07:31:13;;;;;;;1.63;1.52;;;-5.20;99.90;;;;;;5113526;28;20761;-83
2021/12/22 07:33:55;;;;;;;1.10;1.00;;;-5.10;99.90;;;;;;5112122;28;20042;-84
2021/12/22 07:36:21;;;;;;;1.20;1.10;;;-5.10;99.90;;;;;;5113772;28;20057;-82
2021/12/22 07:38:57;;;;;;;1.10;1.00;;;-5.10;99.90;;;;;;5112505;28;20118;-83
2021/12/22 07:41:23;;;;;;;1.10;1.00;;;-5.30;99.90;;;;;;5111463;28;20047;-83
2021/12/22 07:43:48;;;;;;;1.10;1.00;;;-5.10;99.90;;;;;;5117372;28;20341;-82
2021/12/22 07:46:14;;;;;;;1.20;1.10;;;-5.10;99.90;;;;;;5116045;28;20049;-82
2021/12/22 07:48:40;;;;;;;1.10;1.00;;;-5.10;99.90;;;;;;5117243;28;20039;-83
2021/12/22 07:51:05;;;;;;;1.40;1.30;;;-5.10;99.90;;;;;;5117072;28;20200;-83
2021/12/22 07:53:31;;;;;;;1.27;1.17;;;-5.00;99.90;;;;;;5116062;28;20048;-82
2021/12/22 07:55:57;;;;;;;1.20;1.10;;;-5.10;99.90;;;;;;5117198;28;20036;-80
2021/12/22 07:58:24;;;;;;;1.20;1.10;;;-5.00;99.90;;;;;;5117266;28;20493;-80
2021/12/22 08:00:51;;;;;;;1.20;1.10;;;-5.00;99.90;;;;;;5117166;28;20031;-80
2021/12/22 08:03:18;;;;;;;1.10;1.00;;;-5.00;99.90;;;;;;5117763;28;20036;-81
2021/12/22 08:05:43;;;;;;;1.92;1.83;;;-4.90;99.90;;;;;;5116894;28;20483;-81
2021/12/22 08:08:09;;;;;;;1.10;1.00;;;-4.90;99.90;;;;;;5149889;27;20042;-79
2021/12/22 08:10:35;;;;;;;1.67;1.57;;;-4.90;99.90;;;;;;5116931;28;20040;-79
2021/12/22 08:13:01;;;;;;;1.20;1.10;;;-4.90;99.90;;;;;;5116876;28;20092;-81
2021/12/22 08:15:26;;;;;;;1.20;1.10;;;-4.60;99.90;;;;;;5149521;27;20139;-81
2021/12/22 08:17:55;;;;;;;17.30;16.17;;;-4.80;99.90;;;;;;5148404;27;20487;-90
2021/12/22 08:20:22;;;;;;;1.20;1.10;;;-4.80;99.90;;;;;;5115174;28;20031;-85
2021/12/22 08:22:48;;;;;;;1.30;1.20;;;-4.70;99.90;;;;;;5116171;28;20471;-87
2021/12/22 08:25:13;;;;;;;1.10;1.00;;;-4.70;99.90;;;;;;5115955;28;20048;-83
2021/12/22 08:27:39;;;;;;;1.10;1.00;;;-4.60;99.90;;;;;;5116327;28;20042;-84
2021/12/22 08:30:07;;;;;;;1.13;1.03;;;-4.60;99.90;;;;;;5115036;28;20088;-83
2021/12/22 08:32:33;;;;;;;1.20;1.10;;;-4.50;99.90;;;;;;5115931;28;20074;-83
2021/12/22 08:34:59;;;;;;;1.27;1.17;;;-4.60;99.90;;;;;;5116415;28;20036;-82
2021/12/22 08:40:14;;;;;;;0.90;0.90;;;-4.40;99.90;;;;;;5115032;28;20391;-83
2021/12/22 08:42:40;;;;;;;1.15;1.05;;;-4.40;99.90;;;;;;5114889;28;20100;-83
2021/12/22 08:45:07;;;;;;;1.33;1.23;;;-4.30;99.90;;;;;;5114900;28;20479;-83
2021/12/22 08:47:32;;;;;;;1.10;1.00;;;-4.30;99.90;;;;;;5115848;28;20040;-83
2021/12/22 08:49:58;;;;;;;1.83;1.73;;;-4.30;99.90;;;;;;5116078;28;20043;-82
2021/12/22 08:52:23;;;;;;;1.40;1.30;;;-4.20;99.90;;;;;;5113160;28;20056;-83
2021/12/22 08:54:49;;;;;;;1.10;1.00;;;-4.20;99.90;;;;;;5115912;28;20066;-82
2021/12/22 08:57:15;;;;;;;1.50;1.40;;;-4.10;99.90;;;;;;5114792;28;20039;-83
2021/12/22 08:59:41;;;;;;;1.10;1.00;;;-4.20;99.90;;;;;;5115557;27;20039;-82
2021/12/22 09:02:06;;;;;;;1.30;1.20;;;-4.10;99.90;;;;;;5115707;28;20028;-82
2021/12/22 09:04:32;;;;;;;56.03;21.10;;;-4.00;99.90;;;;;;5115789;28;20453;-81
2021/12/22 09:06:58;;;;;;;1.13;1.03;;;-4.00;99.90;;;;;;5115701;28;20491;-84
2021/12/22 09:09:24;;;;;;;1.10;1.00;;;-3.90;99.90;;;;;;5115412;28;20415;-87
2021/12/22 09:11:50;;;;;;;2.55;2.45;;;-3.80;99.90;;;;;;5097685;28;20039;-84
2021/12/22 09:14:18;;;;;;;1.10;1.00;;;-3.80;99.90;;;;;;5115553;28;20522;-84
2021/12/22 09:16:43;;;;;;;1.95;1.20;;;-3.90;99.90;;;;;;5114350;28;20039;-84
2021/12/22 09:19:10;;;;;;;1.10;1.00;;;-3.70;99.90;;;;;;5114505;28;20078;-85
2021/12/22 09:21:37;;;;;;;1.15;1.05;;;-3.60;99.90;;;;;;5114509;28;20042;-88
2021/12/22 09:24:03;;;;;;;3.42;3.15;;;-1.00;99.90;;;;;;5095748;28;20032;-83
2021/12/22 09:26:29;;;;;;;1.20;1.10;;;-3.50;99.90;;;;;;5114373;28;20071;-83
2021/12/22 09:28:55;;;;;;;1.50;1.40;;;-3.50;99.90;;;;;;5113803;28;20101;-79
2021/12/22 09:31:21;;;;;;;1.10;1.00;;;-3.50;99.90;;;;;;5113793;28;20050;-82
2021/12/22 09:33:47;;;;;;;1.20;1.10;;;-3.30;99.90;;;;;;5114013;28;20074;-82
2021/12/22 09:36:15;;;;;;;1.13;1.03;;;-3.40;99.90;;;;;;5113891;28;20067;-80
2021/12/22 09:38:41;;;;;;;1.10;1.00;;;-3.20;99.90;;;;;;5113592;28;20039;-83
2021/12/22 09:41:08;;;;;;;13.60;1.83;;;-3.30;99.90;;;;;;5096550;28;20032;-83
2021/12/22 09:43:33;;;;;;;1.40;1.30;;;-3.30;99.90;;;;;;5112982;28;20035;-82
2021/12/22 09:46:04;;;;;;;1.60;1.50;;;-2.80;99.90;;;;;;5096554;28;20130;-83
2021/12/22 09:48:47;;;;;;;1.17;1.08;;;-3.30;99.90;;;;;;5096267;28;20114;-84
2021/12/22 09:53:44;;;;;;;1.33;1.23;;;-3.20;99.90;;;;;;5113837;28;20047;-82
2021/12/22 09:56:15;;;;;;;1.10;1.00;;;-3.40;99.90;;;;;;5113470;28;20046;-83
2021/12/22 09:58:43;;;;;;;6.55;3.75;;;-3.10;99.90;;;;;;5113151;28;20039;-86
2021/12/22 10:01:10;;;;;;;1.20;1.10;;;-3.10;99.90;;;;;;5113899;28;20136;-82
2021/12/22 10:03:35;;;;;;;1.10;1.00;;;-3.00;99.90;;;;;;5113074;28;20035;-83
2021/12/22 10:06:02;;;;;;;1.37;1.10;;;-3.00;99.90;;;;;;5096647;28;20505;-83
2021/12/22 10:08:28;;;;;;;1.10;1.00;;;-3.00;99.90;;;;;;5096522;28;20449;-80
2021/12/22 10:11:10;;;;;;;1.17;1.08;;;-2.90;99.90;;;;;;5098572;28;20031;-83
2021/12/22 10:13:43;;;;;;;8.25;3.90;;;-2.80;99.90;;;;;;5118476;28;20035;-81
2021/12/22 10:16:18;;;;;;;0.90;0.90;;;-2.70;99.90;;;;;;5117458;28;20035;-82
2021/12/22 10:18:45;;;;;;;1.10;1.00;;;-2.70;99.90;;;;;;5102435;28;20383;-84
2021/12/22 10:21:12;;;;;;;1.10;1.00;;;-2.70;99.90;;;;;;5114636;28;20042;-86
2021/12/22 10:23:42;;;;;;;6.28;5.75;;;-2.60;99.90;;;;;;5096011;28;20093;-83
2021/12/22 10:26:09;;;;;;;2.38;2.28;;;-2.50;99.90;;;;;;5113931;28;20130;-83
2021/12/22 10:28:51;;;;;;;1.23;1.13;;;-2.60;99.90;;;;;;5096192;28;20042;-79
2021/12/22 10:31:19;;;;;;;1.67;1.58;;;-2.50;99.90;;;;;;5114397;28;20043;-82
2021/12/22 10:33:46;;;;;;;1.10;1.00;;;-2.30;99.90;;;;;;5114315;28;20449;-78
2021/12/22 10:36:18;;;;;;;1.55;1.45;;;-2.40;99.90;;;;;;5113800;28;20533;-78
2021/12/22 10:38:52;;;;;;;1.10;1.00;;;-2.20;99.90;;;;;;5114530;28;20043;-79
2021/12/22 10:41:18;;;;;;;1.50;1.40;;;-2.20;99.90;;;;;;5112758;28;20043;-81
2021/12/22 10:43:48;;;;;;;1.00;1.00;;;-2.10;99.90;;;;;;5113109;28;20044;-81
2021/12/22 10:46:30;;;;;;;1.77;1.67;;;-2.00;99.90;;;;;;5113231;28;20168;-81
2021/12/22 10:49:15;;;;;;;1.40;1.30;;;-2.00;99.90;;;;;;5113959;28;20483;-84
2021/12/22 10:51:46;;;;;;;1.10;1.00;;;-1.80;99.90;;;;;;5122411;28;20159;-81
2021/12/22 10:54:16;;;;;;;1.10;1.00;;;-1.90;99.90;;;;;;5115243;28;20114;-80
2021/12/22 10:56:45;;;;;;;2.60;2.42;;;-1.90;99.90;;;;;;5112970;28;20047;-77
2021/12/22 10:59:17;;;;;;;1.20;1.10;;;-1.90;99.90;;;;;;5114161;28;20027;-75
2021/12/22 11:01:57;;;;;;;1.25;1.15;;;-1.80;99.90;;;;;;5114126;28;20039;-77
2021/12/22 11:04:28;;;;;;;1.27;1.17;;;-1.80;99.90;;;;;;5114149;28;20122;-77
2021/12/22 11:06:55;;;;;;;0.82;0.82;;;-1.70;99.90;;;;;;5113653;28;20100;-75
2021/12/22 11:09:23;;;;;;;1.10;1.00;;;-1.70;99.90;;;;;;5113912;28;20050;-77
2021/12/22 11:11:56;;;;;;;5.65;1.27;;;-1.60;99.90;;;;;;5114039;28;20110;-79
2021/12/22 11:14:24;;;;;;;1.17;1.08;;;-1.60;99.90;;;;;;5114023;28;20429;-81
2021/12/22 11:16:59;;;;;;;0.90;0.90;;;-1.50;99.90;;;;;;5117922;28;20088;-78
2021/12/22 11:19:34;;;;;;;3.00;2.80;;;-1.50;99.90;;;;;;5116835;28;20031;-83
2021/12/22 11:22:10;;;;;;;0.90;0.90;;;-1.50;99.90;;;;;;5099379;28;20036;-79
2021/12/22 11:24:39;;;;;;;1.27;1.17;;;-1.40;99.90;;;;;;5117988;28;20106;-80
2021/12/22 11:27:05;;;;;;;3.10;2.25;;;-1.20;99.90;;;;;;5117741;28;20039;-82
2021/12/22 11:29:34;;;;;;;2.33;2.13;;;-1.30;99.90;;;;;;5099604;28;20043;-82
2021/12/22 11:32:03;;;;;;;9.07;3.90;;;-1.30;99.90;;;;;;5100012;28;20039;-80
2021/12/22 11:34:30;;;;;;;1.13;1.02;;;-1.30;99.90;;;;;;5116756;28;20047;-79
2021/12/22 11:36:56;;;;;;;1.30;1.20;;;-1.20;99.90;;;;;;5119950;28;20044;-81
2021/12/22 11:39:22;;;;;;;2.85;2.65;;;-1.20;99.90;;;;;;5120321;28;20031;-83
2021/12/22 11:41:57;;;;;;;1.00;1.00;;;-1.20;99.90;;;;;;5118025;28;20118;-79
2021/12/22 11:44:25;;;;;;;0.98;0.98;;;-1.10;99.90;;;;;;5118721;28;20044;-77
2021/12/22 11:46:55;;;;;;;1.20;1.10;;;-1.00;99.90;;;;;;5124754;28;20083;-80
2021/12/22 11:49:21;;;;;;;1.20;1.10;;;-1.00;99.90;;;;;;5108673;28;20096;-80
2021/12/22 11:51:47;;;;;;;3.90;3.55;;;-1.00;99.90;;;;;;5118300;28;20097;-82
2021/12/22 11:54:13;;;;;;;1.15;1.05;;;-1.00;99.90;;;;;;5127756;28;20044;-84
2021/12/22 11:56:48;;;;;;;1.03;1.03;;;-0.90;99.90;;;;;;5130133;28;20036;-81
2021/12/22 11:59:34;;;;;;;0.90;0.90;;;-1.10;99.90;;;;;;5118108;28;20471;-79
2021/12/22 12:02:20;;;;;;;0.90;0.90;;;-1.10;99.90;;;;;;5117671;28;20035;-79
2021/12/22 12:04:48;;;;;;;0.80;0.80;;;-1.10;99.90;;;;;;5117040;28;20566;-79
2021/12/22 12:07:44;;;;;;;0.90;0.90;;;-0.90;99.90;;;;;;5115766;28;20405;-82
2021/12/22 12:10:34;;;;;;;0.90;0.90;;;-1.10;99.90;;;;;;5115932;28;20040;-79
2021/12/22 12:13:11;;;;;;;3.45;2.25;;;-1.10;99.90;;;;;;5116169;28;20468;-79
2021/12/22 12:21:58;;;;;;;0.90;0.90;;;-1.00;99.90;;;;;;5094651;28;20050;-82
2021/12/22 12:24:37;;;;;;;1.00;1.00;;;-1.00;99.90;;;;;;5094810;28;20075;-81
2021/12/22 12:27:30;;;;;;;1.95;1.85;;;-1.00;99.90;;;;;;5095746;28;20054;-82
2021/12/22 12:29:57;;;;;;;4.50;4.13;;;-1.00;99.90;;;;;;5077697;28;20047;-82
2021/12/22 12:32:41;;;;;;;;;;;-1.00;99.90;;;;;;5095235;28;20047;-79
2021/12/22 12:38:01;;;;;;;0.80;0.80;;;-1.00;99.90;;;;;;5094172;28;20048;-80
2021/12/22 12:41:11;;;;;;;3.15;2.55;;;-1.00;99.90;;;;;;5094345;28;20063;-81
2021/12/22 12:46:35;;;;;;;3.45;2.85;;;-0.80;99.90;;;;;;5094596;28;20040;-81
2021/12/22 12:49:03;;;;;;;0.80;0.80;;;-0.90;99.90;;;;;;5095705;28;20082;-83
2021/12/22 12:51:33;;;;;;;0.90;0.90;;;-0.70;99.90;;;;;;5095055;28;20089;-80
2021/12/22 12:54:21;;;;;;;0.90;0.90;;;-0.70;99.90;;;;;;5094027;28;20051;-82
2021/12/22 12:56:59;;;;;;;1.30;1.20;;;-0.70;99.90;;;;;;5088243;28;20058;-82
2021/12/22 12:59:37;;;;;;;0.90;0.90;;;-0.70;99.90;;;;;;5077462;28;20040;-79
2021/12/22 13:02:04;;;;;;;1.55;1.45;;;-0.70;99.90;;;;;;5095382;28;20036;-84
2021/12/22 13:04:36;;;;;;;1.95;1.48;;;-0.70;99.90;;;;;;5095074;28;20526;-79
2021/12/22 13:07:20;;;;;;;0.80;0.80;;;-0.70;99.90;;;;;;5095316;28;20051;-80
2021/12/22 13:09:49;;;;;;;1.33;1.23;;;-0.70;99.90;;;;;;5095373;28;20502;-80
2021/12/22 13:12:30;;;;;;;2.08;1.67;;;-0.80;99.90;;;;;;5076891;28;20047;-78
2021/12/22 13:18:00;;;;;;;1.17;1.08;;;-0.80;99.90;;;;;;5094788;28;20044;-80
2021/12/22 13:20:32;;;;;;;14.70;3.45;;;-0.80;99.90;;;;;;5076459;28;20063;-79